sensor_id;sensor_type;location;lat;lon;timestamp;pressure;altitude;pressure_sealevel;temperature;humidity
69223;BME280;56514;51.816;-0.026;2023-03-22T00:01:22;99808.59;;;12.67;65.04
69223;BME280;56514;51.816;-0.026;2023-03-22T00:04:31;99816.53;;;12.67;65.04
69223;BME280;56514;51.816;-0.026;2023-03-22T00:07:36;99800.06;;;12.54;65.36
69223;BME280;56514;51.816;-0.026;2023-03-22T00:10:46;99788.25;;;12.58;65.54
69223;BME280;56514;51.816;-0.026;2023-03-22T00:13:56;99781.13;;;12.59;65.71
69223;BME280;56514;51.816;-0.026;2023-03-22T00:17:07;99760.38;;;12.64;65.41
69223;BME280;56514;51.816;-0.026;2023-03-22T00:20:17;99777.66;;;12.77;64.76
69223;BME280;56514;51.816;-0.026;2023-03-22T00:23:28;99774.03;;;12.78;64.86
69223;BME280;56514;51.816;-0.026;2023-03-22T00:26:38;99764.69;;;12.93;64.24
69223;BME280;56514;51.816;-0.026;2023-03-22T00:29:47;99769.13;;;12.83;64.50
69223;BME280;56514;51.816;-0.026;2023-03-22T00:32:56;99752.16;;;12.76;64.90
69223;BME280;56514;51.816;-0.026;2023-03-22T00:35:53;99754.69;;;12.78;65.16
69223;BME280;56514;51.816;-0.026;2023-03-22T00:38:39;99748.72;;;12.66;65.86
69223;BME280;56514;51.816;-0.026;2023-03-22T00:41:23;99758.72;;;12.63;66.18
69223;BME280;56514;51.816;-0.026;2023-03-22T00:44:09;99753.00;;;12.58;66.83
69223;BME280;56514;51.816;-0.026;2023-03-22T00:46:54;99733.69;;;12.48;66.83
69223;BME280;56514;51.816;-0.026;2023-03-22T00:49:39;99719.88;;;12.44;67.51
69223;BME280;56514;51.816;-0.026;2023-03-22T00:52:24;99717.81;;;12.48;67.30
69223;BME280;56514;51.816;-0.026;2023-03-22T00:55:10;99717.63;;;12.59;67.47
69223;BME280;56514;51.816;-0.026;2023-03-22T00:57:55;99712.94;;;12.33;68.44
69223;BME280;56514;51.816;-0.026;2023-03-22T01:00:40;99703.31;;;12.42;68.00
69223;BME280;56514;51.816;-0.026;2023-03-22T01:03:25;99704.03;;;12.44;67.77
69223;BME280;56514;51.816;-0.026;2023-03-22T01:06:10;99680.94;;;12.36;68.02
69223;BME280;56514;51.816;-0.026;2023-03-22T01:08:54;99669.91;;;12.41;67.70
69223;BME280;56514;51.816;-0.026;2023-03-22T01:11:42;99660.47;;;12.29;68.20
69223;BME280;56514;51.816;-0.026;2023-03-22T01:14:27;99670.63;;;12.33;68.09
69223;BME280;56514;51.816;-0.026;2023-03-22T01:17:12;99660.72;;;12.55;67.43
69223;BME280;56514;51.816;-0.026;2023-03-22T01:20:00;99645.03;;;12.34;67.76
69223;BME280;56514;51.816;-0.026;2023-03-22T01:22:45;99635.56;;;12.22;68.70
69223;BME280;56514;51.816;-0.026;2023-03-22T01:25:31;99640.97;;;12.39;67.79
69223;BME280;56514;51.816;-0.026;2023-03-22T01:28:15;99633.31;;;12.36;68.20
69223;BME280;56514;51.816;-0.026;2023-03-22T01:31:01;99637.34;;;12.40;68.25
69223;BME280;56514;51.816;-0.026;2023-03-22T01:33:46;99631.75;;;12.53;67.74
69223;BME280;56514;51.816;-0.026;2023-03-22T01:36:31;99630.09;;;12.43;68.08
69223;BME280;56514;51.816;-0.026;2023-03-22T01:39:16;99627.47;;;12.43;67.97
69223;BME280;56514;51.816;-0.026;2023-03-22T01:42:02;99631.47;;;12.47;68.37
69223;BME280;56514;51.816;-0.026;2023-03-22T01:48:07;99623.47;;;12.10;69.99
69223;BME280;56514;51.816;-0.026;2023-03-22T01:53:53;99598.56;;;12.12;70.23
69223;BME280;56514;51.816;-0.026;2023-03-22T01:56:40;99603.88;;;12.12;70.42
69223;BME280;56514;51.816;-0.026;2023-03-22T01:59:26;99605.09;;;12.27;69.53
69223;BME280;56514;51.816;-0.026;2023-03-22T02:02:12;99596.88;;;12.30;69.85
69223;BME280;56514;51.816;-0.026;2023-03-22T02:05:00;99598.09;;;12.36;69.29
69223;BME280;56514;51.816;-0.026;2023-03-22T02:07:45;99590.72;;;12.30;69.64
69223;BME280;56514;51.816;-0.026;2023-03-22T02:10:30;99573.06;;;12.40;69.46
69223;BME280;56514;51.816;-0.026;2023-03-22T02:13:23;99567.78;;;12.40;69.58
69223;BME280;56514;51.816;-0.026;2023-03-22T02:25:47;99541.38;;;12.58;68.48
69223;BME280;56514;51.816;-0.026;2023-03-22T02:38:08;99514.16;;;12.48;69.41
69223;BME280;56514;51.816;-0.026;2023-03-22T02:44:26;99515.81;;;12.49;69.68
69223;BME280;56514;51.816;-0.026;2023-03-22T02:47:23;99510.22;;;12.52;69.53
69223;BME280;56514;51.816;-0.026;2023-03-22T02:50:33;99524.47;;;12.41;70.59
69223;BME280;56514;51.816;-0.026;2023-03-22T02:53:29;99499.03;;;12.30;70.49
69223;BME280;56514;51.816;-0.026;2023-03-22T02:56:33;99497.09;;;12.32;70.53
69223;BME280;56514;51.816;-0.026;2023-03-22T02:59:24;99487.88;;;12.36;70.55
69223;BME280;56514;51.816;-0.026;2023-03-22T03:02:12;99491.06;;;12.40;70.38
69223;BME280;56514;51.816;-0.026;2023-03-22T03:05:02;99499.16;;;12.38;70.05
69223;BME280;56514;51.816;-0.026;2023-03-22T03:07:51;99483.00;;;12.42;69.70
69223;BME280;56514;51.816;-0.026;2023-03-22T03:10:40;99483.47;;;12.55;69.28
69223;BME280;56514;51.816;-0.026;2023-03-22T03:13:25;99479.69;;;12.57;69.17
69223;BME280;56514;51.816;-0.026;2023-03-22T03:16:12;99476.41;;;12.46;69.25
69223;BME280;56514;51.816;-0.026;2023-03-22T03:19:15;99468.44;;;12.55;68.96
69223;BME280;56514;51.816;-0.026;2023-03-22T03:22:33;99461.47;;;12.54;69.17
69223;BME280;56514;51.816;-0.026;2023-03-22T03:25:50;99462.88;;;12.31;69.91
69223;BME280;56514;51.816;-0.026;2023-03-22T03:32:05;99449.81;;;12.20;71.02
69223;BME280;56514;51.816;-0.026;2023-03-22T03:35:06;99456.63;;;12.22;70.56
69223;BME280;56514;51.816;-0.026;2023-03-22T03:38:30;99444.69;;;12.09;71.41
69223;BME280;56514;51.816;-0.026;2023-03-22T03:41:21;99441.78;;;12.12;71.36
69223;BME280;56514;51.816;-0.026;2023-03-22T03:44:09;99460.91;;;12.23;70.59
69223;BME280;56514;51.816;-0.026;2023-03-22T03:46:54;99445.91;;;12.24;71.26
69223;BME280;56514;51.816;-0.026;2023-03-22T03:49:40;99444.56;;;12.10;71.91
69223;BME280;56514;51.816;-0.026;2023-03-22T03:52:25;99442.78;;;12.01;71.88
69223;BME280;56514;51.816;-0.026;2023-03-22T03:55:10;99450.84;;;12.00;72.62
69223;BME280;56514;51.816;-0.026;2023-03-22T03:57:55;99445.69;;;12.08;71.82
69223;BME280;56514;51.816;-0.026;2023-03-22T04:00:40;99453.47;;;12.09;71.67
69223;BME280;56514;51.816;-0.026;2023-03-22T04:03:26;99429.41;;;12.12;71.92
69223;BME280;56514;51.816;-0.026;2023-03-22T04:06:10;99433.44;;;12.07;72.41
69223;BME280;56514;51.816;-0.026;2023-03-22T04:08:55;99431.06;;;12.04;73.06
69223;BME280;56514;51.816;-0.026;2023-03-22T04:11:41;99434.28;;;12.07;72.86
69223;BME280;56514;51.816;-0.026;2023-03-22T04:14:27;99427.63;;;12.03;73.12
69223;BME280;56514;51.816;-0.026;2023-03-22T04:17:12;99420.13;;;11.99;73.23
69223;BME280;56514;51.816;-0.026;2023-03-22T04:20:00;99420.38;;;12.05;73.50
69223;BME280;56514;51.816;-0.026;2023-03-22T04:22:46;99432.53;;;11.89;74.25
69223;BME280;56514;51.816;-0.026;2023-03-22T04:25:33;99431.78;;;12.06;74.06
69223;BME280;56514;51.816;-0.026;2023-03-22T04:28:21;99430.44;;;11.92;74.95
69223;BME280;56514;51.816;-0.026;2023-03-22T04:31:07;99430.16;;;11.86;75.31
69223;BME280;56514;51.816;-0.026;2023-03-22T04:33:52;99433.50;;;11.88;75.56
69223;BME280;56514;51.816;-0.026;2023-03-22T04:36:40;99436.88;;;11.80;75.68
69223;BME280;56514;51.816;-0.026;2023-03-22T04:39:25;99438.91;;;11.96;75.14
69223;BME280;56514;51.816;-0.026;2023-03-22T04:42:10;99438.53;;;11.81;76.41
69223;BME280;56514;51.816;-0.026;2023-03-22T04:44:55;99427.97;;;11.81;76.12
69223;BME280;56514;51.816;-0.026;2023-03-22T04:47:40;99423.38;;;11.83;76.42
69223;BME280;56514;51.816;-0.026;2023-03-22T04:50:25;99425.88;;;11.85;76.17
69223;BME280;56514;51.816;-0.026;2023-03-22T04:53:12;99438.22;;;11.94;75.90
69223;BME280;56514;51.816;-0.026;2023-03-22T04:56:00;99438.09;;;11.86;76.37
69223;BME280;56514;51.816;-0.026;2023-03-22T04:58:46;99435.88;;;11.91;76.32
69223;BME280;56514;51.816;-0.026;2023-03-22T05:01:31;99427.22;;;11.98;76.08
69223;BME280;56514;51.816;-0.026;2023-03-22T05:04:18;99440.47;;;11.79;77.24
69223;BME280;56514;51.816;-0.026;2023-03-22T05:07:03;99437.13;;;11.87;76.91
69223;BME280;56514;51.816;-0.026;2023-03-22T05:09:48;99446.72;;;11.78;77.31
69223;BME280;56514;51.816;-0.026;2023-03-22T05:12:32;99441.03;;;11.83;77.20
69223;BME280;56514;51.816;-0.026;2023-03-22T05:15:17;99429.47;;;11.84;77.07
69223;BME280;56514;51.816;-0.026;2023-03-22T05:18:02;99428.78;;;11.91;76.47
69223;BME280;56514;51.816;-0.026;2023-03-22T05:20:47;99427.25;;;11.79;77.36
69223;BME280;56514;51.816;-0.026;2023-03-22T05:23:32;99415.72;;;11.90;77.04
69223;BME280;56514;51.816;-0.026;2023-03-22T05:26:17;99414.72;;;11.91;77.02
69223;BME280;56514;51.816;-0.026;2023-03-22T05:29:04;99426.50;;;11.96;76.80
69223;BME280;56514;51.816;-0.026;2023-03-22T05:31:49;99421.66;;;11.92;77.28
69223;BME280;56514;51.816;-0.026;2023-03-22T05:34:34;99416.41;;;11.82;77.55
69223;BME280;56514;51.816;-0.026;2023-03-22T05:37:19;99420.31;;;11.78;77.73
69223;BME280;56514;51.816;-0.026;2023-03-22T05:40:05;99427.66;;;11.84;77.52
69223;BME280;56514;51.816;-0.026;2023-03-22T05:42:54;99424.59;;;11.89;77.50
69223;BME280;56514;51.816;-0.026;2023-03-22T05:45:39;99419.03;;;11.92;77.17
69223;BME280;56514;51.816;-0.026;2023-03-22T05:48:24;99423.22;;;11.85;78.19
69223;BME280;56514;51.816;-0.026;2023-03-22T05:51:14;99414.88;;;11.89;77.78
69223;BME280;56514;51.816;-0.026;2023-03-22T05:54:03;99431.00;;;11.96;77.20
69223;BME280;56514;51.816;-0.026;2023-03-22T05:56:48;99426.81;;;11.93;77.54
69223;BME280;56514;51.816;-0.026;2023-03-22T05:59:33;99419.31;;;11.89;77.55
69223;BME280;56514;51.816;-0.026;2023-03-22T06:02:18;99428.34;;;11.96;77.72
69223;BME280;56514;51.816;-0.026;2023-03-22T06:05:05;99415.66;;;11.99;77.10
69223;BME280;56514;51.816;-0.026;2023-03-22T06:07:51;99419.72;;;11.94;77.65
69223;BME280;56514;51.816;-0.026;2023-03-22T06:10:36;99426.94;;;11.92;77.72
69223;BME280;56514;51.816;-0.026;2023-03-22T06:13:20;99439.34;;;11.91;77.68
69223;BME280;56514;51.816;-0.026;2023-03-22T06:16:06;99432.78;;;11.95;77.75
69223;BME280;56514;51.816;-0.026;2023-03-22T06:18:51;99443.38;;;11.86;78.42
69223;BME280;56514;51.816;-0.026;2023-03-22T06:21:36;99433.81;;;11.75;78.73
69223;BME280;56514;51.816;-0.026;2023-03-22T06:24:20;99435.88;;;11.91;78.36
69223;BME280;56514;51.816;-0.026;2023-03-22T06:27:07;99432.50;;;11.98;78.09
69223;BME280;56514;51.816;-0.026;2023-03-22T06:29:51;99428.19;;;11.97;77.91
69223;BME280;56514;51.816;-0.026;2023-03-22T06:32:38;99428.72;;;12.01;77.75
69223;BME280;56514;51.816;-0.026;2023-03-22T06:35:22;99430.16;;;11.95;78.13
69223;BME280;56514;51.816;-0.026;2023-03-22T06:38:08;99416.53;;;11.90;78.77
69223;BME280;56514;51.816;-0.026;2023-03-22T06:40:53;99426.09;;;12.01;78.11
69223;BME280;56514;51.816;-0.026;2023-03-22T06:43:38;99413.53;;;12.12;77.36
69223;BME280;56514;51.816;-0.026;2023-03-22T06:46:23;99417.22;;;11.92;78.59
69223;BME280;56514;51.816;-0.026;2023-03-22T06:49:08;99411.84;;;12.11;77.55
69223;BME280;56514;51.816;-0.026;2023-03-22T06:51:53;99405.03;;;12.18;77.57
69223;BME280;56514;51.816;-0.026;2023-03-22T06:54:37;99393.56;;;12.27;76.97
69223;BME280;56514;51.816;-0.026;2023-03-22T06:57:22;99391.50;;;12.21;77.20
69223;BME280;56514;51.816;-0.026;2023-03-22T07:00:08;99388.06;;;12.11;78.22
69223;BME280;56514;51.816;-0.026;2023-03-22T07:02:53;99396.75;;;12.31;77.12
69223;BME280;56514;51.816;-0.026;2023-03-22T07:05:39;99381.59;;;12.23;77.63
69223;BME280;56514;51.816;-0.026;2023-03-22T07:08:24;99384.06;;;12.34;76.79
69223;BME280;56514;51.816;-0.026;2023-03-22T07:11:09;99354.66;;;12.37;77.30
69223;BME280;56514;51.816;-0.026;2023-03-22T07:13:56;99339.69;;;12.28;77.88
69223;BME280;56514;51.816;-0.026;2023-03-22T07:16:42;99381.50;;;12.43;77.06
69223;BME280;56514;51.816;-0.026;2023-03-22T07:19:27;99368.38;;;12.68;75.36
69223;BME280;56514;51.816;-0.026;2023-03-22T07:22:12;99372.47;;;12.63;76.19
69223;BME280;56514;51.816;-0.026;2023-03-22T07:25:01;99384.16;;;12.60;76.10
69223;BME280;56514;51.816;-0.026;2023-03-22T07:27:46;99385.69;;;12.63;75.44
69223;BME280;56514;51.816;-0.026;2023-03-22T07:30:30;99409.22;;;12.66;75.53
69223;BME280;56514;51.816;-0.026;2023-03-22T07:33:15;99404.66;;;12.58;76.14
69223;BME280;56514;51.816;-0.026;2023-03-22T07:36:00;99419.91;;;12.74;75.21
69223;BME280;56514;51.816;-0.026;2023-03-22T07:38:45;99411.00;;;12.65;75.35
69223;BME280;56514;51.816;-0.026;2023-03-22T07:41:29;99429.38;;;12.67;75.36
69223;BME280;56514;51.816;-0.026;2023-03-22T07:44:15;99430.97;;;12.60;76.04
69223;BME280;56514;51.816;-0.026;2023-03-22T07:47:01;99427.84;;;12.74;75.09
69223;BME280;56514;51.816;-0.026;2023-03-22T07:49:46;99422.84;;;12.71;75.51
69223;BME280;56514;51.816;-0.026;2023-03-22T07:52:31;99417.31;;;12.82;74.42
69223;BME280;56514;51.816;-0.026;2023-03-22T07:55:17;99435.97;;;12.80;74.70
69223;BME280;56514;51.816;-0.026;2023-03-22T07:58:03;99436.00;;;12.98;74.21
69223;BME280;56514;51.816;-0.026;2023-03-22T08:00:48;99448.84;;;13.02;73.70
69223;BME280;56514;51.816;-0.026;2023-03-22T08:03:34;99456.09;;;12.91;74.89
69223;BME280;56514;51.816;-0.026;2023-03-22T08:06:20;99440.19;;;13.00;74.67
69223;BME280;56514;51.816;-0.026;2023-03-22T08:09:05;99436.56;;;13.01;74.93
69223;BME280;56514;51.816;-0.026;2023-03-22T08:11:51;99438.69;;;13.15;74.33
69223;BME280;56514;51.816;-0.026;2023-03-22T08:14:37;99447.63;;;13.14;74.35
69223;BME280;56514;51.816;-0.026;2023-03-22T08:17:22;99439.91;;;13.21;73.95
69223;BME280;56514;51.816;-0.026;2023-03-22T08:20:10;99437.63;;;13.08;75.03
69223;BME280;56514;51.816;-0.026;2023-03-22T08:23:00;99438.91;;;13.22;74.60
69223;BME280;56514;51.816;-0.026;2023-03-22T08:25:45;99432.56;;;13.32;74.45
69223;BME280;56514;51.816;-0.026;2023-03-22T08:28:30;99438.22;;;13.20;74.93
69223;BME280;56514;51.816;-0.026;2023-03-22T08:31:16;99444.06;;;13.06;76.24
69223;BME280;56514;51.816;-0.026;2023-03-22T08:34:01;99437.97;;;12.96;76.88
69223;BME280;56514;51.816;-0.026;2023-03-22T08:36:45;99434.94;;;12.91;77.50
69223;BME280;56514;51.816;-0.026;2023-03-22T08:39:31;99431.25;;;13.01;77.47
69223;BME280;56514;51.816;-0.026;2023-03-22T08:42:16;99427.06;;;13.08;77.42
69223;BME280;56514;51.816;-0.026;2023-03-22T08:45:01;99430.59;;;13.17;77.10
69223;BME280;56514;51.816;-0.026;2023-03-22T08:47:46;99439.06;;;13.20;76.29
69223;BME280;56514;51.816;-0.026;2023-03-22T08:50:31;99433.94;;;13.19;76.37
69223;BME280;56514;51.816;-0.026;2023-03-22T08:53:19;99468.06;;;13.04;77.89
69223;BME280;56514;51.816;-0.026;2023-03-22T08:56:04;99471.47;;;12.87;77.84
69223;BME280;56514;51.816;-0.026;2023-03-22T08:58:49;99471.63;;;12.59;78.89
69223;BME280;56514;51.816;-0.026;2023-03-22T09:01:35;99472.31;;;12.33;80.03
69223;BME280;56514;51.816;-0.026;2023-03-22T09:04:20;99473.59;;;12.29;80.46
69223;BME280;56514;51.816;-0.026;2023-03-22T09:07:06;99487.78;;;12.19;80.67
69223;BME280;56514;51.816;-0.026;2023-03-22T09:09:51;99474.56;;;12.19;80.90
69223;BME280;56514;51.816;-0.026;2023-03-22T09:12:37;99485.28;;;12.17;80.97
69223;BME280;56514;51.816;-0.026;2023-03-22T09:15:23;99486.56;;;12.13;81.57
69223;BME280;56514;51.816;-0.026;2023-03-22T09:18:08;99498.84;;;12.05;82.19
69223;BME280;56514;51.816;-0.026;2023-03-22T09:20:54;99503.00;;;12.07;82.90
69223;BME280;56514;51.816;-0.026;2023-03-22T09:23:39;99495.84;;;12.27;83.81
69223;BME280;56514;51.816;-0.026;2023-03-22T09:26:25;99494.09;;;12.45;82.57
69223;BME280;56514;51.816;-0.026;2023-03-22T09:29:12;99492.88;;;12.39;82.80
69223;BME280;56514;51.816;-0.026;2023-03-22T09:32:01;99489.38;;;12.39;82.70
69223;BME280;56514;51.816;-0.026;2023-03-22T09:34:46;99501.78;;;12.38;82.42
69223;BME280;56514;51.816;-0.026;2023-03-22T09:37:30;99494.25;;;12.43;82.08
69223;BME280;56514;51.816;-0.026;2023-03-22T09:40:15;99491.31;;;12.47;81.76
69223;BME280;56514;51.816;-0.026;2023-03-22T09:43:04;99481.81;;;12.54;81.67
69223;BME280;56514;51.816;-0.026;2023-03-22T09:45:51;99485.78;;;12.67;81.54
69223;BME280;56514;51.816;-0.026;2023-03-22T09:48:38;99490.03;;;12.78;81.86
69223;BME280;56514;51.816;-0.026;2023-03-22T09:51:36;99504.34;;;12.85;81.53
69223;BME280;56514;51.816;-0.026;2023-03-22T09:54:39;99500.50;;;12.97;80.52
69223;BME280;56514;51.816;-0.026;2023-03-22T09:57:34;99500.34;;;13.08;80.22
69223;BME280;56514;51.816;-0.026;2023-03-22T10:00:30;99503.06;;;13.16;79.81
69223;BME280;56514;51.816;-0.026;2023-03-22T10:09:12;99477.13;;;13.37;80.20
69223;BME280;56514;51.816;-0.026;2023-03-22T10:12:09;99488.09;;;13.42;80.35
69223;BME280;56514;51.816;-0.026;2023-03-22T10:17:51;99493.16;;;13.35;79.96
69223;BME280;56514;51.816;-0.026;2023-03-22T10:20:43;99496.97;;;13.33;79.41
69223;BME280;56514;51.816;-0.026;2023-03-22T10:26:37;99479.31;;;13.06;78.54
69223;BME280;56514;51.816;-0.026;2023-03-22T10:32:17;99478.00;;;12.66;80.03
69223;BME280;56514;51.816;-0.026;2023-03-22T10:35:02;99484.03;;;12.58;80.74
69223;BME280;56514;51.816;-0.026;2023-03-22T10:37:49;99494.03;;;12.64;81.30
69223;BME280;56514;51.816;-0.026;2023-03-22T10:40:37;99491.53;;;12.63;81.45
69223;BME280;56514;51.816;-0.026;2023-03-22T10:43:34;99486.09;;;12.64;81.84
69223;BME280;56514;51.816;-0.026;2023-03-22T10:46:23;99483.63;;;12.80;81.70
69223;BME280;56514;51.816;-0.026;2023-03-22T10:49:34;99485.91;;;12.93;81.39
69223;BME280;56514;51.816;-0.026;2023-03-22T10:55:15;99490.22;;;13.21;80.99
69223;BME280;56514;51.816;-0.026;2023-03-22T10:58:12;99495.50;;;13.38;81.47
69223;BME280;56514;51.816;-0.026;2023-03-22T11:01:08;99483.78;;;13.58;81.33
69223;BME280;56514;51.816;-0.026;2023-03-22T11:04:20;99495.81;;;13.70;80.50
69223;BME280;56514;51.816;-0.026;2023-03-22T11:07:15;99489.72;;;13.78;80.29
69223;BME280;56514;51.816;-0.026;2023-03-22T11:15:59;99491.09;;;14.59;75.69
69223;BME280;56514;51.816;-0.026;2023-03-22T11:18:46;99486.66;;;14.75;73.25
69223;BME280;56514;51.816;-0.026;2023-03-22T11:21:32;99480.25;;;14.94;74.63
69223;BME280;56514;51.816;-0.026;2023-03-22T11:24:17;99484.66;;;15.27;71.73
69223;BME280;56514;51.816;-0.026;2023-03-22T11:27:25;99483.22;;;15.48;72.49
69223;BME280;56514;51.816;-0.026;2023-03-22T11:30:25;99483.88;;;15.50;69.95
69223;BME280;56514;51.816;-0.026;2023-03-22T11:33:20;99474.94;;;15.43;71.30
69223;BME280;56514;51.816;-0.026;2023-03-22T11:36:17;99477.91;;;15.56;69.90
69223;BME280;56514;51.816;-0.026;2023-03-22T11:39:05;99468.44;;;15.70;68.03
69223;BME280;56514;51.816;-0.026;2023-03-22T11:41:55;99476.41;;;15.70;67.22
69223;BME280;56514;51.816;-0.026;2023-03-22T11:44:42;99470.94;;;15.71;66.49
69223;BME280;56514;51.816;-0.026;2023-03-22T11:47:33;99456.47;;;15.90;67.85
69223;BME280;56514;51.816;-0.026;2023-03-22T11:50:27;99445.59;;;16.16;68.58
69223;BME280;56514;51.816;-0.026;2023-03-22T11:53:17;99452.38;;;16.34;66.24
69223;BME280;56514;51.816;-0.026;2023-03-22T11:56:04;99454.84;;;16.36;63.99
69223;BME280;56514;51.816;-0.026;2023-03-22T11:58:58;99463.19;;;16.25;65.44
69223;BME280;56514;51.816;-0.026;2023-03-22T12:02:13;99453.66;;;16.54;62.97
69223;BME280;56514;51.816;-0.026;2023-03-22T12:05:11;99450.16;;;16.54;62.78
69223;BME280;56514;51.816;-0.026;2023-03-22T12:08:08;99451.97;;;16.53;64.86
69223;BME280;56514;51.816;-0.026;2023-03-22T12:11:06;99444.16;;;16.90;60.85
69223;BME280;56514;51.816;-0.026;2023-03-22T12:13:56;99445.91;;;17.06;62.88
69223;BME280;56514;51.816;-0.026;2023-03-22T12:16:51;99453.69;;;17.38;61.97
69223;BME280;56514;51.816;-0.026;2023-03-22T12:22:41;99440.13;;;17.70;62.44
69223;BME280;56514;51.816;-0.026;2023-03-22T12:25:32;99440.97;;;18.00;58.89
69223;BME280;56514;51.816;-0.026;2023-03-22T12:28:26;99426.59;;;17.86;58.19
69223;BME280;56514;51.816;-0.026;2023-03-22T12:31:16;99429.50;;;17.99;60.28
69223;BME280;56514;51.816;-0.026;2023-03-22T12:34:11;99439.75;;;18.54;56.21
69223;BME280;56514;51.816;-0.026;2023-03-22T12:37:01;99433.09;;;18.50;54.44
69223;BME280;56514;51.816;-0.026;2023-03-22T12:39:53;99425.75;;;18.52;53.94
69223;BME280;56514;51.816;-0.026;2023-03-22T12:45:46;99428.69;;;18.28;51.67
69223;BME280;56514;51.816;-0.026;2023-03-22T12:48:38;99432.53;;;17.96;53.08
69223;BME280;56514;51.816;-0.026;2023-03-22T12:51:24;99419.00;;;17.98;54.49
69223;BME280;56514;51.816;-0.026;2023-03-22T12:54:10;99416.63;;;18.17;55.88
69223;BME280;56514;51.816;-0.026;2023-03-22T12:57:01;99429.03;;;18.68;55.01
69223;BME280;56514;51.816;-0.026;2023-03-22T12:59:49;99419.56;;;19.01;52.84
69223;BME280;56514;51.816;-0.026;2023-03-22T13:02:36;99428.13;;;19.33;51.81
69223;BME280;56514;51.816;-0.026;2023-03-22T13:05:26;99434.13;;;19.35;49.37
69223;BME280;56514;51.816;-0.026;2023-03-22T13:08:12;99423.91;;;19.23;51.02
69223;BME280;56514;51.816;-0.026;2023-03-22T13:11:04;99421.31;;;19.09;51.82
69223;BME280;56514;51.816;-0.026;2023-03-22T13:13:49;99409.56;;;18.89;49.22
69223;BME280;56514;51.816;-0.026;2023-03-22T13:16:51;99422.59;;;18.48;49.63
69223;BME280;56514;51.816;-0.026;2023-03-22T13:25:34;99407.44;;;17.68;51.27
69223;BME280;56514;51.816;-0.026;2023-03-22T13:28:24;99413.34;;;17.41;52.57
69223;BME280;56514;51.816;-0.026;2023-03-22T13:31:31;99412.19;;;17.13;55.37
69223;BME280;56514;51.816;-0.026;2023-03-22T13:34:30;99417.00;;;17.17;54.96
69223;BME280;56514;51.816;-0.026;2023-03-22T13:37:46;99421.03;;;17.13;52.93
69223;BME280;56514;51.816;-0.026;2023-03-22T13:40:55;99415.78;;;16.97;54.08
69223;BME280;56514;51.816;-0.026;2023-03-22T13:43:51;99407.41;;;16.86;53.39
69223;BME280;56514;51.816;-0.026;2023-03-22T13:46:42;99406.44;;;16.79;53.86
69223;BME280;56514;51.816;-0.026;2023-03-22T13:49:43;99381.50;;;16.72;54.79
69223;BME280;56514;51.816;-0.026;2023-03-22T13:52:36;99368.16;;;16.80;55.42
69223;BME280;56514;51.816;-0.026;2023-03-22T14:01:31;99341.75;;;16.93;53.74
69223;BME280;56514;51.816;-0.026;2023-03-22T14:04:27;99350.94;;;16.90;54.44
69223;BME280;56514;51.816;-0.026;2023-03-22T14:07:36;99355.31;;;16.83;54.00
69223;BME280;56514;51.816;-0.026;2023-03-22T14:13:32;99337.06;;;16.50;56.09
69223;BME280;56514;51.816;-0.026;2023-03-22T14:19:21;99341.38;;;16.43;56.11
69223;BME280;56514;51.816;-0.026;2023-03-22T14:22:13;99321.09;;;16.50;54.85
69223;BME280;56514;51.816;-0.026;2023-03-22T14:25:06;99311.09;;;16.74;55.19
69223;BME280;56514;51.816;-0.026;2023-03-22T14:27:52;99319.69;;;17.44;54.43
69223;BME280;56514;51.816;-0.026;2023-03-22T14:30:42;99314.94;;;17.83;52.63
69223;BME280;56514;51.816;-0.026;2023-03-22T14:33:28;99310.41;;;17.98;51.41
69223;BME280;56514;51.816;-0.026;2023-03-22T14:36:14;99317.09;;;18.73;50.12
69223;BME280;56514;51.816;-0.026;2023-03-22T14:39:06;99324.88;;;19.32;48.79
69223;BME280;56514;51.816;-0.026;2023-03-22T14:44:46;99311.56;;;19.38;46.37
69223;BME280;56514;51.816;-0.026;2023-03-22T14:47:39;99329.06;;;18.77;48.31
69223;BME280;56514;51.816;-0.026;2023-03-22T14:50:24;99326.53;;;18.19;49.56
69223;BME280;56514;51.816;-0.026;2023-03-22T14:53:09;99317.78;;;17.82;50.86
69223;BME280;56514;51.816;-0.026;2023-03-22T14:55:55;99337.66;;;17.42;52.60
69223;BME280;56514;51.816;-0.026;2023-03-22T14:58:41;99345.22;;;17.16;53.05
69223;BME280;56514;51.816;-0.026;2023-03-22T15:01:29;99357.97;;;17.06;53.44
69223;BME280;56514;51.816;-0.026;2023-03-22T15:04:16;99355.53;;;16.96;52.85
69223;BME280;56514;51.816;-0.026;2023-03-22T15:07:02;99356.25;;;16.90;52.86
69223;BME280;56514;51.816;-0.026;2023-03-22T15:09:47;99359.75;;;16.68;53.44
69223;BME280;56514;51.816;-0.026;2023-03-22T15:12:35;99357.59;;;16.64;53.54
69223;BME280;56514;51.816;-0.026;2023-03-22T15:15:29;99364.47;;;16.50;54.50
69223;BME280;56514;51.816;-0.026;2023-03-22T15:18:19;99347.69;;;16.50;54.03
69223;BME280;56514;51.816;-0.026;2023-03-22T15:21:05;99355.72;;;16.34;55.60
69223;BME280;56514;51.816;-0.026;2023-03-22T15:23:55;99367.03;;;16.44;55.34
69223;BME280;56514;51.816;-0.026;2023-03-22T15:26:40;99365.31;;;16.43;54.78
69223;BME280;56514;51.816;-0.026;2023-03-22T15:29:27;99369.09;;;16.26;54.97
69223;BME280;56514;51.816;-0.026;2023-03-22T15:32:17;99370.94;;;16.17;55.62
69223;BME280;56514;51.816;-0.026;2023-03-22T15:35:03;99381.13;;;16.06;56.50
69223;BME280;56514;51.816;-0.026;2023-03-22T15:37:51;99384.56;;;16.14;54.99
69223;BME280;56514;51.816;-0.026;2023-03-22T15:40:41;99370.44;;;16.14;55.94
69223;BME280;56514;51.816;-0.026;2023-03-22T15:43:37;99365.19;;;16.44;54.40
69223;BME280;56514;51.816;-0.026;2023-03-22T15:46:22;99372.66;;;16.41;55.10
69223;BME280;56514;51.816;-0.026;2023-03-22T15:55:14;99347.38;;;16.37;53.77
69223;BME280;56514;51.816;-0.026;2023-03-22T15:58:02;99355.19;;;16.38;52.91
69223;BME280;56514;51.816;-0.026;2023-03-22T16:00:51;99357.25;;;16.28;53.63
69223;BME280;56514;51.816;-0.026;2023-03-22T16:03:40;99372.38;;;16.28;54.83
69223;BME280;56514;51.816;-0.026;2023-03-22T16:06:27;99361.72;;;16.36;54.59
69223;BME280;56514;51.816;-0.026;2023-03-22T16:09:13;99342.06;;;16.45;55.05
69223;BME280;56514;51.816;-0.026;2023-03-22T16:12:00;99348.75;;;16.33;55.97
69223;BME280;56514;51.816;-0.026;2023-03-22T16:14:45;99338.06;;;16.41;54.70